Chebeague Island, Maine
Current Conditions -  °F | °C
As of 2:51 PM on Sunday 23 Nov 2014 (Local Time) from KPWM Reporting Station
Scattered Clouds Scattered Clouds  
Wind Chill: 56°   Ceiling: Unl
Heat Index: 56°   Visibility: 10mi
Dew Point: 40°   Wind: 8mph
Humidity: 55%   Direction: 280°W
Pressure: 30.09"   Gusts: NA
Location:  43.74°N, 70.11°W
Report Text: KPWM 231951Z 28007KT 10SM SCT060 13/04 A3009 RMK AO2 SLP188 T01330044
Loading
Personal Weather Stations






























Interactive Weather Map New forecast layout! Learn more

10-Day Weather Forecast

Advertisements
Track Severe Weather on mobile